Time;durP1;ratioP1;P1;durP2;ratioP2;P2;SDS_P1;SDS_P2;PMS_P1;PMS_P2;Temp;Humidity;BMP_temperature;BMP_pressure;BME280_temperature;BME280_humidity;BME280_pressure;Samples;Min_cycle;Max_cycle;Signal;HPM_P1;HPM_P2
2022/08/05 00:01:19;;;;;;;1.05;0.82;;;23.40;97.40;;;;;;5131711;27;20061;-62
2022/08/05 00:03:49;;;;;;;0.63;0.55;;;23.30;97.30;;;;;;5131511;27;20039;-62
2022/08/05 00:06:15;;;;;;;0.85;0.68;;;23.30;97.30;;;;;;5131900;27;20044;-62
2022/08/05 00:08:41;;;;;;;1.23;0.70;;;23.30;97.40;;;;;;5132396;27;20116;-62
2022/08/05 00:11:10;;;;;;;2.05;0.70;;;23.30;97.40;;;;;;5131957;27;20435;-62
2022/08/05 00:13:37;;;;;;;1.73;0.73;;;23.30;97.30;;;;;;5113618;27;20047;-62
2022/08/05 00:16:04;;;;;;;1.35;0.75;;;23.30;97.40;;;;;;5131503;27;20066;-62
2022/08/05 00:18:29;;;;;;;1.85;0.77;;;23.30;97.40;;;;;;5130946;27;20078;-62
2022/08/05 00:20:55;;;;;;;1.92;0.75;;;23.30;97.40;;;;;;5132333;27;20111;-62
2022/08/05 00:23:21;;;;;;;1.08;0.52;;;23.30;97.40;;;;;;5132496;27;20476;-62
2022/08/05 00:25:47;;;;;;;1.05;0.93;;;23.30;97.40;;;;;;5138230;27;20054;-62
2022/08/05 00:28:14;;;;;;;0.68;0.60;;;23.30;97.40;;;;;;5132178;27;20476;-62
2022/08/05 00:30:40;;;;;;;1.40;0.63;;;23.30;97.40;;;;;;5130933;27;20043;-62
2022/08/05 00:33:06;;;;;;;0.55;0.55;;;23.30;97.40;;;;;;5145576;27;20062;-63
2022/08/05 00:35:31;;;;;;;0.63;0.63;;;23.30;97.40;;;;;;5131979;27;20042;-62
2022/08/05 00:37:57;;;;;;;0.60;0.57;;;23.30;97.40;;;;;;5141051;27;20499;-62
2022/08/05 00:40:24;;;;;;;0.70;0.60;;;23.30;97.40;;;;;;5126149;27;20070;-62
2022/08/05 00:42:50;;;;;;;0.60;0.50;;;23.30;97.40;;;;;;5131462;27;20126;-62
2022/08/05 00:45:15;;;;;;;1.65;0.70;;;23.30;97.40;;;;;;5133880;27;20039;-62
2022/08/05 00:47:41;;;;;;;0.60;0.52;;;23.30;97.40;;;;;;5132908;27;20062;-63
2022/08/05 00:50:08;;;;;;;0.63;0.63;;;23.30;97.40;;;;;;5131896;27;20472;-62
2022/08/05 00:52:34;;;;;;;0.60;0.50;;;23.30;97.40;;;;;;5131379;27;20107;-62
2022/08/05 00:54:59;;;;;;;2.10;0.90;;;23.30;97.40;;;;;;5122145;27;20047;-62
2022/08/05 00:57:25;;;;;;;0.73;0.60;;;23.30;97.40;;;;;;5130723;27;20039;-62
2022/08/05 00:59:51;;;;;;;0.75;0.55;;;23.30;97.40;;;;;;5130534;27;20079;-62
2022/08/05 01:02:17;;;;;;;1.30;0.70;;;23.30;97.40;;;;;;5128937;27;20043;-62
2022/08/05 01:04:43;;;;;;;1.40;0.80;;;23.20;97.40;;;;;;5151254;27;20051;-62
2022/08/05 01:07:09;;;;;;;1.42;0.60;;;23.20;97.40;;;;;;5138103;27;20039;-62
2022/08/05 01:09:34;;;;;;;1.88;0.73;;;23.30;97.40;;;;;;5146373;27;20050;-62
2022/08/05 01:12:05;;;;;;;0.63;0.50;;;23.20;97.40;;;;;;5143346;27;20039;-62
2022/08/05 01:14:57;;;;;;;1.48;0.93;;;23.20;97.40;;;;;;5122152;27;20130;-62
2022/08/05 01:17:28;;;;;;;0.60;0.60;;;23.20;97.40;;;;;;5120434;27;20046;-62
2022/08/05 01:20:29;;;;;;;0.60;0.60;;;23.20;97.40;;;;;;5132706;27;20427;-63
2022/08/05 01:23:20;;;;;;;0.45;0.45;;;23.20;97.40;;;;;;5085043;27;20046;-63
2022/08/05 01:25:56;;;;;;;0.60;0.60;;;23.30;97.40;;;;;;5117708;27;20052;-63
2022/08/05 01:28:37;;;;;;;1.15;0.57;;;23.20;97.40;;;;;;5116433;28;20047;-62
2022/08/05 01:31:11;;;;;;;0.73;0.73;;;23.20;97.40;;;;;;5130163;27;20165;-62
2022/08/05 01:33:50;;;;;;;0.63;0.63;;;23.20;97.40;;;;;;5108486;28;20148;-62
2022/08/05 01:36:17;;;;;;;0.75;0.70;;;23.20;97.40;;;;;;5125868;28;20054;-62
2022/08/05 01:38:46;;;;;;;0.40;0.40;;;23.20;97.50;;;;;;5130996;28;20042;-62
2022/08/05 01:41:15;;;;;;;1.83;0.70;;;23.20;97.40;;;;;;5130748;27;20051;-62
2022/08/05 01:43:42;;;;;;;0.98;0.77;;;23.20;97.50;;;;;;5130676;27;20047;-62
2022/08/05 01:46:08;;;;;;;0.68;0.68;;;23.20;97.50;;;;;;5130407;28;20062;-62
2022/08/05 01:48:35;;;;;;;0.47;0.43;;;23.20;97.50;;;;;;5124895;28;20420;-62
2022/08/05 01:51:03;;;;;;;1.38;0.70;;;23.20;97.50;;;;;;5124709;27;20276;-62
2022/08/05 01:53:33;;;;;;;0.50;0.50;;;23.20;97.50;;;;;;5145768;27;20498;-62
2022/08/05 01:56:01;;;;;;;0.60;0.50;;;23.20;97.50;;;;;;5130675;27;20046;-62
2022/08/05 01:58:29;;;;;;;0.75;0.63;;;23.20;97.50;;;;;;5130899;27;20064;-62
2022/08/05 02:00:57;;;;;;;1.20;0.70;;;23.20;97.50;;;;;;5129262;28;20047;-62
2022/08/05 02:03:35;;;;;;;0.40;0.40;;;23.20;97.50;;;;;;5129527;27;20047;-62
2022/08/05 02:06:04;;;;;;;0.63;0.63;;;23.20;97.50;;;;;;5099580;28;20050;-62
2022/08/05 02:08:31;;;;;;;0.50;0.50;;;23.20;97.80;;;;;;5131313;27;20448;-62
2022/08/05 02:11:05;;;;;;;0.50;0.50;;;23.20;97.50;;;;;;5130326;27;20114;-62
2022/08/05 02:13:40;;;;;;;0.70;0.60;;;23.10;97.50;;;;;;5130632;28;20480;-62
2022/08/05 02:16:14;;;;;;;0.70;0.70;;;23.20;97.60;;;;;;5121500;27;20047;-62
2022/08/05 02:18:46;;;;;;;0.63;0.60;;;23.20;97.60;;;;;;5150784;27;20043;-62
2022/08/05 02:21:16;;;;;;;0.60;0.50;;;23.20;97.60;;;;;;5112274;27;20043;-62
2022/08/05 02:23:45;;;;;;;0.70;0.70;;;23.10;97.70;;;;;;5117202;28;20112;-62
2022/08/05 02:26:15;;;;;;;0.60;0.60;;;23.10;97.60;;;;;;5126249;28;20101;-62
2022/08/05 02:28:43;;;;;;;0.60;0.60;;;23.10;97.60;;;;;;5118937;28;20555;-62
2022/08/05 02:31:15;;;;;;;0.75;0.75;;;23.10;97.50;;;;;;5127470;28;20078;-62
2022/08/05 02:33:49;;;;;;;0.50;0.50;;;23.10;97.60;;;;;;5129668;28;20077;-62
2022/08/05 02:36:19;;;;;;;0.80;0.68;;;23.20;97.60;;;;;;5130968;28;20046;-62
2022/08/05 02:38:46;;;;;;;0.73;0.57;;;23.10;97.60;;;;;;5130535;28;20046;-63
2022/08/05 02:41:14;;;;;;;1.30;0.70;;;23.10;97.60;;;;;;5132793;27;20062;-62
2022/08/05 02:43:40;;;;;;;0.93;0.40;;;23.10;97.60;;;;;;5133530;27;20511;-62
2022/08/05 02:46:06;;;;;;;0.68;0.60;;;23.10;97.60;;;;;;5131226;27;20120;-62
2022/08/05 02:48:33;;;;;;;1.13;0.80;;;23.10;97.60;;;;;;5133600;27;20475;-62
2022/08/05 02:51:03;;;;;;;1.02;0.73;;;23.10;97.60;;;;;;5134182;27;20051;-62
2022/08/05 02:53:32;;;;;;;1.33;0.80;;;23.10;97.60;;;;;;5116379;27;20051;-62
2022/08/05 02:55:58;;;;;;;0.63;0.60;;;23.10;97.60;;;;;;5131928;27;20118;-62
2022/08/05 02:58:25;;;;;;;1.00;0.52;;;23.10;97.60;;;;;;5129320;27;20499;-62
2022/08/05 03:00:57;;;;;;;0.50;0.50;;;23.10;97.90;;;;;;5132951;27;20043;-62
2022/08/05 03:03:23;;;;;;;0.82;0.70;;;23.20;97.70;;;;;;5132961;27;20511;-62
2022/08/05 03:05:49;;;;;;;0.60;0.60;;;23.10;97.60;;;;;;5133891;27;20434;-62
2022/08/05 03:08:16;;;;;;;0.75;0.70;;;23.10;97.90;;;;;;5134370;27;20039;-62
2022/08/05 03:10:43;;;;;;;1.00;0.70;;;23.10;97.60;;;;;;5132669;27;20406;-62
2022/08/05 03:13:13;;;;;;;0.70;0.70;;;23.10;97.60;;;;;;5150177;27;20122;-62
2022/08/05 03:15:46;;;;;;;0.60;0.60;;;23.10;97.60;;;;;;5153925;27;20042;-62
2022/08/05 03:18:13;;;;;;;0.73;0.52;;;23.10;97.60;;;;;;5153805;27;20046;-62
2022/08/05 03:20:39;;;;;;;0.28;0.28;;;23.20;97.70;;;;;;5149336;27;20047;-62
2022/08/05 03:23:07;;;;;;;1.13;0.77;;;23.10;97.70;;;;;;5133660;27;20050;-62
2022/08/05 03:25:35;;;;;;;1.00;0.60;;;23.10;97.70;;;;;;5132451;27;20082;-63
2022/08/05 03:28:02;;;;;;;1.23;0.85;;;23.10;97.70;;;;;;5122427;27;20051;-63
2022/08/05 03:30:33;;;;;;;0.60;0.60;;;23.10;97.70;;;;;;5153819;27;20046;-62
2022/08/05 03:33:03;;;;;;;0.65;0.60;;;23.10;97.70;;;;;;5152789;27;20142;-63
2022/08/05 03:35:30;;;;;;;0.60;0.57;;;23.10;97.70;;;;;;5154631;27;20050;-63
2022/08/05 03:37:57;;;;;;;0.80;0.60;;;23.10;97.70;;;;;;5135750;27;20138;-62
2022/08/05 03:40:23;;;;;;;0.75;0.60;;;23.10;97.70;;;;;;5154429;27;20042;-63
2022/08/05 03:42:49;;;;;;;0.65;0.65;;;23.10;97.70;;;;;;5154092;27;20085;-63
2022/08/05 03:45:15;;;;;;;0.60;0.60;;;23.10;97.70;;;;;;5138347;27;20074;-63
2022/08/05 03:47:40;;;;;;;0.30;0.30;;;23.10;97.70;;;;;;5128914;27;20476;-63
2022/08/05 03:50:06;;;;;;;1.05;0.60;;;23.10;97.70;;;;;;5132859;27;20172;-63
2022/08/05 03:52:36;;;;;;;0.65;0.65;;;23.10;97.70;;;;;;5133425;27;20047;-62
2022/08/05 03:55:10;;;;;;;0.70;0.60;;;23.10;97.70;;;;;;5133044;27;20062;-63
2022/08/05 03:57:39;;;;;;;0.65;0.65;;;23.10;97.70;;;;;;5133240;27;20076;-63
2022/08/05 04:00:11;;;;;;;1.08;0.60;;;23.10;97.70;;;;;;5132832;27;20050;-63
2022/08/05 04:02:39;;;;;;;0.65;0.65;;;23.10;97.70;;;;;;5132836;27;20130;-63
2022/08/05 04:05:07;;;;;;;0.60;0.60;;;23.10;97.70;;;;;;5132187;27;20043;-63
2022/08/05 04:07:33;;;;;;;0.75;0.65;;;23.10;97.70;;;;;;5139328;27;20047;-63
2022/08/05 04:09:59;;;;;;;0.50;0.50;;;23.00;97.70;;;;;;5145804;27;20062;-63
2022/08/05 04:12:25;;;;;;;0.50;0.50;;;23.00;97.70;;;;;;5131840;27;20624;-62
2022/08/05 04:14:51;;;;;;;0.95;0.65;;;23.00;97.70;;;;;;5132854;27;20121;-62
2022/08/05 04:17:18;;;;;;;0.65;0.60;;;23.10;97.70;;;;;;5113196;27;20051;-63
2022/08/05 04:19:45;;;;;;;0.45;0.40;;;23.00;97.70;;;;;;5131443;27;20484;-63
2022/08/05 04:22:11;;;;;;;1.02;0.60;;;23.10;97.70;;;;;;5114054;27;20412;-62
2022/08/05 04:24:42;;;;;;;1.15;0.65;;;23.00;97.70;;;;;;5132638;27;20493;-62
2022/08/05 04:27:08;;;;;;;1.52;0.80;;;23.00;97.70;;;;;;5150511;27;20139;-62
2022/08/05 04:29:34;;;;;;;1.20;0.70;;;23.00;97.70;;;;;;5153416;27;20104;-63
2022/08/05 04:32:00;;;;;;;1.13;0.68;;;23.00;97.70;;;;;;5151764;27;20069;-62
2022/08/05 04:34:26;;;;;;;0.70;0.70;;;23.00;97.80;;;;;;5150510;27;20051;-62
2022/08/05 04:36:51;;;;;;;0.63;0.60;;;23.10;97.80;;;;;;5153039;27;20046;-62
2022/08/05 04:39:18;;;;;;;0.60;0.60;;;23.00;97.70;;;;;;5152282;27;20061;-62
2022/08/05 04:41:43;;;;;;;0.57;0.50;;;23.00;97.80;;;;;;5120446;27;20085;-62
2022/08/05 04:44:09;;;;;;;0.50;0.50;;;23.00;97.80;;;;;;5131915;27;20051;-62
2022/08/05 04:46:35;;;;;;;4.18;0.70;;;23.00;97.80;;;;;;5131287;27;20047;-62
2022/08/05 04:49:01;;;;;;;0.90;0.52;;;23.00;97.80;;;;;;5130894;27;20502;-62
2022/08/05 04:51:27;;;;;;;0.65;0.50;;;23.00;97.80;;;;;;5132491;27;20043;-62
2022/08/05 04:53:52;;;;;;;1.02;0.80;;;23.00;97.80;;;;;;5132222;27;20043;-62
2022/08/05 04:56:18;;;;;;;0.57;0.57;;;23.00;97.80;;;;;;5108655;28;20035;-62
2022/08/05 04:58:44;;;;;;;0.77;0.77;;;23.00;97.80;;;;;;5111630;28;20054;-62
2022/08/05 05:01:09;;;;;;;0.50;0.50;;;23.00;97.80;;;;;;5109935;28;20050;-63
2022/08/05 05:03:35;;;;;;;0.60;0.60;;;23.00;97.80;;;;;;5075358;28;20048;-62
2022/08/05 05:06:00;;;;;;;1.45;0.50;;;23.00;97.80;;;;;;5111013;28;20056;-63
2022/08/05 05:08:26;;;;;;;1.65;0.70;;;23.00;97.80;;;;;;5111498;28;20557;-62
2022/08/05 05:10:52;;;;;;;0.60;0.60;;;23.00;97.80;;;;;;5125923;27;20051;-62
2022/08/05 05:13:18;;;;;;;0.70;0.52;;;23.00;97.80;;;;;;5131258;27;20031;-62
2022/08/05 05:15:44;;;;;;;1.88;0.60;;;23.00;97.80;;;;;;5130918;27;20058;-63
2022/08/05 05:18:14;;;;;;;1.55;0.60;;;23.00;97.80;;;;;;5130500;27;20043;-62
2022/08/05 05:20:45;;;;;;;0.65;0.65;;;23.00;97.80;;;;;;5131993;27;20054;-62
2022/08/05 05:23:12;;;;;;;1.63;0.85;;;23.00;97.80;;;;;;5131424;27;20143;-62
2022/08/05 05:25:40;;;;;;;0.90;0.80;;;23.00;97.80;;;;;;5131718;27;20103;-62
2022/08/05 05:28:06;;;;;;;0.40;0.30;;;23.00;97.90;;;;;;5128824;27;20070;-62
2022/08/05 05:30:31;;;;;;;0.60;0.60;;;23.00;97.90;;;;;;5110460;28;20143;-63
2022/08/05 05:33:03;;;;;;;1.45;0.77;;;23.00;97.90;;;;;;5122203;27;20058;-62
2022/08/05 05:35:30;;;;;;;0.47;0.47;;;22.90;97.80;;;;;;5131593;28;20053;-62
2022/08/05 05:37:59;;;;;;;0.43;0.40;;;23.00;97.90;;;;;;5131517;28;20050;-62
2022/08/05 05:40:26;;;;;;;0.70;0.70;;;23.00;97.90;;;;;;5131056;28;20039;-62
2022/08/05 05:42:52;;;;;;;0.52;0.52;;;23.00;97.90;;;;;;5131202;28;20404;-63
2022/08/05 05:45:19;;;;;;;1.05;0.52;;;23.00;97.90;;;;;;5127517;28;20054;-63
2022/08/05 05:47:45;;;;;;;0.95;0.43;;;23.00;97.90;;;;;;5120654;28;20050;-63
2022/08/05 05:50:13;;;;;;;0.52;0.52;;;23.00;97.90;;;;;;5130458;28;20054;-63
2022/08/05 05:52:38;;;;;;;0.50;0.50;;;23.00;97.90;;;;;;5112524;28;20047;-63
2022/08/05 05:55:09;;;;;;;0.50;0.50;;;23.00;97.90;;;;;;5114248;28;20047;-64
2022/08/05 05:57:36;;;;;;;0.93;0.60;;;23.00;97.90;;;;;;5111021;28;20039;-62
2022/08/05 06:00:04;;;;;;;0.73;0.50;;;23.00;97.90;;;;;;5092607;28;20059;-62
2022/08/05 06:02:30;;;;;;;0.60;0.60;;;23.00;97.90;;;;;;5091911;28;20058;-62
2022/08/05 06:04:56;;;;;;;0.73;0.55;;;23.00;97.90;;;;;;5120253;28;20047;-63
2022/08/05 06:07:21;;;;;;;0.65;0.50;;;23.00;97.90;;;;;;5121546;27;20484;-63
2022/08/05 06:09:47;;;;;;;0.40;0.40;;;23.00;97.90;;;;;;5132836;27;20043;-63
2022/08/05 06:12:13;;;;;;;1.27;0.50;;;22.90;97.90;;;;;;5130698;28;20053;-63
2022/08/05 06:14:38;;;;;;;0.70;0.70;;;23.00;97.90;;;;;;5130812;27;20105;-63
2022/08/05 06:17:04;;;;;;;0.63;0.60;;;22.90;97.90;;;;;;5134139;27;20087;-63
2022/08/05 06:19:30;;;;;;;0.93;0.50;;;23.00;97.90;;;;;;5133795;27;20059;-63
2022/08/05 06:21:55;;;;;;;1.35;0.60;;;22.90;97.90;;;;;;5135338;27;20138;-63
2022/08/05 06:24:21;;;;;;;0.57;0.50;;;22.90;97.90;;;;;;5134832;27;20537;-63
2022/08/05 06:26:47;;;;;;;0.40;0.40;;;22.90;97.90;;;;;;5130680;27;20046;-63
2022/08/05 06:29:12;;;;;;;1.02;0.60;;;22.90;97.90;;;;;;5121990;27;20046;-63
2022/08/05 06:31:38;;;;;;;0.55;0.55;;;22.90;97.90;;;;;;5134193;27;20518;-63
2022/08/05 06:34:04;;;;;;;0.63;0.45;;;22.90;97.90;;;;;;5134046;27;20046;-63
2022/08/05 06:36:30;;;;;;;0.73;0.52;;;22.90;97.90;;;;;;5127293;27;20293;-63
2022/08/05 06:38:56;;;;;;;1.17;0.60;;;22.90;97.90;;;;;;5114459;28;20623;-63
2022/08/05 06:41:21;;;;;;;0.70;0.63;;;22.90;98.00;;;;;;5113753;28;20105;-63
2022/08/05 06:43:48;;;;;;;0.50;0.50;;;22.90;98.20;;;;;;5114255;28;20052;-63
2022/08/05 06:46:14;;;;;;;0.85;0.57;;;22.90;97.90;;;;;;5112630;28;20176;-63
2022/08/05 06:48:40;;;;;;;0.63;0.45;;;22.90;97.90;;;;;;5119057;27;20126;-63
2022/08/05 06:51:06;;;;;;;0.63;0.63;;;22.90;98.00;;;;;;5112261;27;20046;-63
2022/08/05 06:53:32;;;;;;;0.60;0.50;;;22.90;98.00;;;;;;5134147;27;20088;-63
2022/08/05 06:55:58;;;;;;;0.82;0.70;;;22.90;98.00;;;;;;5134465;27;20043;-63
2022/08/05 06:58:25;;;;;;;0.63;0.63;;;22.90;98.00;;;;;;5117142;27;20123;-63
2022/08/05 07:00:51;;;;;;;0.65;0.57;;;22.90;98.00;;;;;;5122207;27;20047;-65
2022/08/05 07:03:17;;;;;;;0.55;0.50;;;22.90;98.00;;;;;;5132563;27;20069;-63
2022/08/05 07:05:43;;;;;;;0.75;0.50;;;22.90;98.00;;;;;;5134432;27;20039;-62
2022/08/05 07:08:09;;;;;;;1.42;0.73;;;22.90;98.00;;;;;;5128318;27;20638;-62
2022/08/05 07:10:34;;;;;;;1.45;0.70;;;22.90;98.00;;;;;;5104095;28;20139;-62
2022/08/05 07:18:29;;;;;;;0.63;0.63;;;22.90;98.00;;;;;;5112260;28;20141;-62
2022/08/05 07:20:55;;;;;;;0.52;0.50;;;22.90;98.00;;;;;;5113661;28;20047;-63
2022/08/05 07:23:20;;;;;;;0.50;0.50;;;22.90;98.00;;;;;;5113058;28;20043;-62
2022/08/05 07:25:46;;;;;;;0.55;0.45;;;22.90;98.00;;;;;;5112989;28;20522;-63
2022/08/05 07:28:11;;;;;;;0.40;0.40;;;22.90;98.00;;;;;;5116012;27;20043;-63
2022/08/05 07:30:37;;;;;;;0.90;0.70;;;22.90;98.00;;;;;;5120649;27;20511;-62
2022/08/05 07:33:05;;;;;;;1.10;0.63;;;22.90;98.00;;;;;;5111561;27;20062;-62
2022/08/05 07:35:31;;;;;;;0.60;0.60;;;22.90;98.00;;;;;;5119339;27;20051;-63
2022/08/05 07:37:56;;;;;;;0.57;0.50;;;22.90;98.00;;;;;;5133293;27;20046;-63
2022/08/05 07:40:22;;;;;;;1.85;0.70;;;22.90;98.00;;;;;;5132508;27;20043;-63
2022/08/05 07:42:48;;;;;;;0.73;0.45;;;22.90;98.00;;;;;;5133015;27;20172;-63
2022/08/05 07:45:14;;;;;;;0.70;0.68;;;22.90;98.00;;;;;;5125141;27;20503;-63
2022/08/05 07:47:41;;;;;;;0.70;0.70;;;22.90;98.00;;;;;;5127723;27;20166;-63
2022/08/05 07:50:07;;;;;;;0.57;0.57;;;22.90;98.00;;;;;;5131502;27;20605;-63
2022/08/05 07:52:42;;;;;;;0.52;0.52;;;22.90;98.00;;;;;;5138333;27;20522;-63
2022/08/05 07:55:09;;;;;;;0.40;0.40;;;22.90;98.00;;;;;;5125331;27;20172;-63
2022/08/05 07:57:35;;;;;;;0.85;0.70;;;22.90;98.00;;;;;;5135820;27;20289;-63
2022/08/05 08:00:04;;;;;;;0.43;0.43;;;22.90;98.00;;;;;;5140470;27;20042;-63
2022/08/05 08:02:29;;;;;;;0.50;0.50;;;22.90;98.00;;;;;;5147572;27;20046;-63
2022/08/05 08:04:55;;;;;;;0.63;0.60;;;22.90;98.00;;;;;;5151396;27;20088;-63
2022/08/05 08:07:21;;;;;;;0.50;0.50;;;22.90;98.10;;;;;;5150679;27;20075;-63
2022/08/05 08:09:48;;;;;;;0.98;0.50;;;22.90;98.10;;;;;;5142018;27;20043;-63
2022/08/05 08:12:14;;;;;;;0.65;0.63;;;22.90;98.00;;;;;;5142015;27;20081;-64
2022/08/05 08:14:41;;;;;;;0.52;0.52;;;22.90;98.00;;;;;;5140260;27;20074;-63
2022/08/05 08:17:10;;;;;;;0.77;0.77;;;22.90;98.10;;;;;;5134094;27;20046;-63
2022/08/05 08:19:37;;;;;;;1.00;0.57;;;22.90;98.00;;;;;;5126379;27;20781;-62
2022/08/05 08:22:04;;;;;;;2.17;1.00;;;22.90;98.10;;;;;;5132160;27;20051;-63
2022/08/05 08:24:30;;;;;;;2.33;0.80;;;22.90;97.90;;;;;;5110356;27;20036;-63
2022/08/05 08:26:56;;;;;;;1.40;0.90;;;22.90;97.80;;;;;;5127439;27;20122;-63
2022/08/05 08:29:22;;;;;;;0.65;0.65;;;22.90;97.80;;;;;;5128112;27;20157;-63
2022/08/05 08:31:48;;;;;;;0.95;0.90;;;22.90;97.80;;;;;;5131181;27;20103;-62
2022/08/05 08:34:14;;;;;;;0.85;0.85;;;22.90;97.70;;;;;;5143971;27;20513;-62
2022/08/05 08:36:40;;;;;;;0.95;0.85;;;22.80;97.70;;;;;;5131837;27;20047;-63
2022/08/05 08:39:06;;;;;;;1.55;1.10;;;22.90;97.60;;;;;;5131594;27;20077;-62
2022/08/05 08:41:34;;;;;;;1.00;0.90;;;22.80;97.60;;;;;;5128580;27;20404;-63
2022/08/05 08:44:01;;;;;;;1.83;0.80;;;22.80;97.50;;;;;;5130467;27;20079;-63
2022/08/05 08:46:30;;;;;;;1.38;0.82;;;22.80;97.50;;;;;;5137000;27;20050;-63
2022/08/05 08:48:57;;;;;;;1.25;0.90;;;22.80;97.40;;;;;;5132493;27;20071;-64
2022/08/05 08:51:23;;;;;;;0.85;0.75;;;22.80;97.40;;;;;;5131081;27;20049;-64
2022/08/05 08:53:49;;;;;;;1.23;1.00;;;22.80;97.40;;;;;;5131981;27;20126;-62
2022/08/05 08:56:16;;;;;;;0.60;0.60;;;22.80;97.40;;;;;;5140203;27;20125;-62
2022/08/05 08:58:42;;;;;;;1.38;0.90;;;22.90;97.40;;;;;;5133812;27;20045;-62
2022/08/05 09:01:09;;;;;;;1.88;1.08;;;22.80;97.40;;;;;;5133104;27;20138;-62
2022/08/05 09:03:36;;;;;;;0.90;0.68;;;22.80;97.30;;;;;;5150744;27;20035;-63
2022/08/05 09:06:02;;;;;;;0.98;0.70;;;22.80;97.20;;;;;;5131456;27;20445;-62
2022/08/05 09:08:27;;;;;;;0.88;0.80;;;22.80;97.20;;;;;;5128298;27;20069;-62
2022/08/05 09:10:53;;;;;;;0.85;0.85;;;22.80;97.10;;;;;;5131059;27;20043;-63
2022/08/05 09:13:19;;;;;;;0.80;0.70;;;22.80;97.10;;;;;;5131109;27;20089;-62
2022/08/05 09:15:46;;;;;;;2.50;0.82;;;22.80;97.10;;;;;;5132869;27;20078;-62
2022/08/05 09:18:11;;;;;;;0.88;0.88;;;22.80;97.10;;;;;;5130858;27;20493;-63
2022/08/05 09:20:40;;;;;;;0.75;0.75;;;22.80;97.10;;;;;;5130919;27;20084;-63
2022/08/05 09:23:11;;;;;;;1.17;0.90;;;22.80;97.10;;;;;;5130205;27;20499;-63
2022/08/05 09:25:42;;;;;;;0.95;0.80;;;22.80;97.00;;;;;;5131298;27;20047;-63
2022/08/05 09:28:28;;;;;;;0.77;0.77;;;22.80;97.10;;;;;;5130358;27;20046;-62
2022/08/05 09:31:16;;;;;;;0.70;0.70;;;22.80;97.00;;;;;;5097157;28;20062;-64
2022/08/05 09:33:49;;;;;;;0.98;0.88;;;22.80;97.10;;;;;;5108742;28;20489;-63
2022/08/05 09:36:16;;;;;;;0.70;0.70;;;22.80;97.00;;;;;;5111234;28;20040;-63
2022/08/05 09:38:56;;;;;;;0.57;0.57;;;22.80;97.10;;;;;;5110634;28;20093;-62
2022/08/05 09:41:22;;;;;;;0.90;0.90;;;22.80;97.00;;;;;;5110944;28;20061;-63
2022/08/05 09:43:48;;;;;;;1.00;0.90;;;22.80;97.00;;;;;;5110199;28;20043;-63
2022/08/05 09:46:27;;;;;;;77.97;4.70;;;22.80;96.70;;;;;;5109933;28;20087;-66
2022/08/05 09:48:57;;;;;;;1.00;0.90;;;22.80;96.80;;;;;;5110162;28;20055;-64
2022/08/05 09:51:34;;;;;;;3.22;0.90;;;22.80;96.30;;;;;;5115370;28;20552;-63
2022/08/05 09:54:04;;;;;;;1.45;0.82;;;22.80;96.00;;;;;;5129767;27;20079;-63
2022/08/05 09:56:32;;;;;;;0.75;0.75;;;22.70;96.00;;;;;;5129778;27;20067;-63
2022/08/05 09:59:16;;;;;;;1.77;0.63;;;22.70;95.90;;;;;;5134822;27;20122;-63
2022/08/05 10:01:45;;;;;;;0.93;0.60;;;22.70;95.80;;;;;;5133633;27;20074;-63
2022/08/05 10:04:14;;;;;;;0.93;0.63;;;22.70;95.90;;;;;;5134640;27;20051;-63
2022/08/05 10:06:42;;;;;;;0.85;0.50;;;22.70;95.90;;;;;;5135066;27;20123;-63
2022/08/05 10:09:20;;;;;;;1.50;0.82;;;22.70;95.90;;;;;;5135600;27;20047;-63
2022/08/05 10:11:46;;;;;;;0.70;0.70;;;22.70;95.90;;;;;;5134809;27;20047;-64
2022/08/05 10:14:29;;;;;;;13.70;1.25;;;22.70;95.90;;;;;;5134881;27;20461;-63
2022/08/05 10:17:10;;;;;;;0.70;0.70;;;22.70;95.80;;;;;;5120062;27;20091;-63
2022/08/05 10:19:36;;;;;;;1.27;0.70;;;22.70;95.80;;;;;;5131600;27;20053;-63
2022/08/05 10:22:02;;;;;;;0.55;0.50;;;22.70;95.80;;;;;;5135385;27;20079;-64
2022/08/05 10:24:31;;;;;;;1.60;0.60;;;22.70;95.80;;;;;;5135316;27;20085;-64
2022/08/05 10:26:59;;;;;;;3.15;1.00;;;22.80;95.80;;;;;;5134647;27;20108;-63
2022/08/05 10:29:26;;;;;;;2.15;0.77;;;22.80;95.80;;;;;;5123436;27;20048;-63
2022/08/05 10:31:52;;;;;;;0.93;0.80;;;22.80;95.80;;;;;;5112640;28;20047;-63
2022/08/05 10:34:18;;;;;;;0.60;0.60;;;22.80;95.70;;;;;;5113685;28;20055;-64
2022/08/05 10:36:45;;;;;;;1.67;0.80;;;22.80;95.70;;;;;;5122319;27;20074;-64
2022/08/05 10:39:17;;;;;;;1.17;0.70;;;22.80;95.70;;;;;;5134426;27;20051;-64
2022/08/05 10:41:57;;;;;;;1.75;0.70;;;22.80;95.70;;;;;;5133221;27;20365;-64
2022/08/05 10:44:24;;;;;;;0.70;0.70;;;22.80;95.70;;;;;;5123980;27;20118;-64
2022/08/05 10:46:50;;;;;;;0.60;0.60;;;22.80;95.70;;;;;;5126351;27;20046;-64
2022/08/05 10:49:17;;;;;;;0.73;0.73;;;22.80;95.70;;;;;;5130950;27;20369;-63
2022/08/05 10:51:45;;;;;;;1.65;0.90;;;22.80;95.70;;;;;;5134328;27;20130;-64
2022/08/05 10:54:12;;;;;;;0.80;0.80;;;22.80;95.60;;;;;;5133847;27;20095;-63
2022/08/05 10:56:54;;;;;;;0.60;0.60;;;22.80;95.60;;;;;;5133460;27;20079;-64
2022/08/05 10:59:31;;;;;;;0.93;0.75;;;22.80;95.60;;;;;;5134027;27;20054;-62
2022/08/05 11:02:08;;;;;;;;;;;22.80;95.60;;;;;;5128952;27;20043;-63
2022/08/05 11:04:53;;;;;;;1.35;0.63;;;22.80;95.50;;;;;;5132093;27;19976;-64
2022/08/05 11:07:20;;;;;;;1.63;0.50;;;22.80;95.10;;;;;;5100620;28;20083;-63
2022/08/05 11:09:50;;;;;;;1.02;0.45;;;22.80;94.90;;;;;;5117597;27;20518;-64
2022/08/05 11:12:35;;;;;;;0.40;0.40;;;22.80;94.70;;;;;;5134370;27;20054;-64
2022/08/05 11:15:14;;;;;;;0.60;0.60;;;22.80;94.60;;;;;;5132966;27;20518;-64
2022/08/05 11:17:41;;;;;;;0.40;0.40;;;22.80;94.50;;;;;;5133488;27;20043;-63
2022/08/05 11:20:28;;;;;;;0.68;0.60;;;22.80;94.40;;;;;;5114994;27;20047;-64
2022/08/05 11:22:53;;;;;;;;;;;22.80;94.30;;;;;;5133709;27;20122;-64
2022/08/05 11:25:37;;;;;;;0.57;0.57;;;22.80;94.10;;;;;;5133643;27;20049;-63
2022/08/05 11:28:12;;;;;;;0.93;0.63;;;22.80;94.20;;;;;;5110984;28;20047;-63
2022/08/05 11:31:02;;;;;;;0.75;0.70;;;22.80;94.20;;;;;;5112552;28;20043;-63
2022/08/05 11:33:35;;;;;;;1.25;0.60;;;22.80;94.00;;;;;;5113045;27;20117;-63
2022/08/05 11:36:01;;;;;;;0.52;0.52;;;22.70;94.00;;;;;;5112903;28;20059;-63
2022/08/05 11:38:42;;;;;;;0.68;0.65;;;22.80;94.00;;;;;;5133073;27;20437;-63
2022/08/05 11:41:15;;;;;;;0.77;0.70;;;22.80;93.90;;;;;;5133549;27;20039;-64
2022/08/05 11:43:56;;;;;;;0.63;0.60;;;22.80;94.00;;;;;;5133662;27;20050;-63
2022/08/05 11:46:28;;;;;;;0.55;0.55;;;22.80;93.90;;;;;;5132651;27;20082;-64
2022/08/05 11:48:55;;;;;;;0.65;0.65;;;22.80;93.90;;;;;;5131970;27;20061;-64
2022/08/05 11:51:21;;;;;;;0.65;0.65;;;22.70;93.90;;;;;;5115838;27;20058;-63
2022/08/05 11:53:47;;;;;;;0.68;0.68;;;22.80;93.90;;;;;;5112455;28;20039;-63
2022/08/05 11:56:13;;;;;;;2.45;0.93;;;22.80;93.80;;;;;;5128903;27;20443;-63
2022/08/05 11:58:41;;;;;;;0.40;0.40;;;22.80;93.80;;;;;;5112855;28;20055;-64
2022/08/05 12:01:20;;;;;;;0.77;0.73;;;22.80;93.80;;;;;;5111456;28;20047;-63
2022/08/05 12:03:51;;;;;;;1.55;0.63;;;22.80;93.80;;;;;;5130517;27;20127;-63
2022/08/05 12:06:21;;;;;;;0.57;0.57;;;22.80;93.80;;;;;;5115302;27;20051;-63
2022/08/05 12:08:57;;;;;;;0.60;0.60;;;22.80;93.90;;;;;;5114553;27;20051;-63
2022/08/05 12:11:24;;;;;;;0.70;0.70;;;22.80;93.90;;;;;;5132745;27;20399;-63
2022/08/05 12:14:00;;;;;;;1.80;0.95;;;22.80;94.00;;;;;;5131255;27;20047;-63
2022/08/05 12:16:28;;;;;;;0.97;0.77;;;22.80;94.00;;;;;;5112404;27;20432;-63
2022/08/05 12:18:54;;;;;;;0.60;0.60;;;22.80;94.00;;;;;;5119030;27;20281;-64
2022/08/05 12:21:25;;;;;;;2.47;0.60;;;22.80;94.00;;;;;;5132918;27;20047;-63
2022/08/05 12:23:58;;;;;;;0.57;0.57;;;22.80;94.00;;;;;;5112083;28;20059;-64
2022/08/05 12:26:23;;;;;;;0.68;0.68;;;22.80;94.00;;;;;;5111943;28;20048;-63
2022/08/05 12:28:49;;;;;;;0.60;0.60;;;22.80;94.10;;;;;;5111619;28;20043;-63
2022/08/05 12:31:16;;;;;;;1.05;0.55;;;22.80;94.10;;;;;;5111312;28;20126;-63
2022/08/05 12:33:43;;;;;;;0.40;0.40;;;22.80;94.20;;;;;;5122224;27;20388;-63
2022/08/05 12:36:09;;;;;;;0.57;0.57;;;22.80;94.20;;;;;;5132424;27;20047;-63
2022/08/05 12:38:37;;;;;;;0.50;0.50;;;22.80;94.20;;;;;;5132639;27;20553;-63
2022/08/05 12:41:07;;;;;;;0.63;0.63;;;22.80;94.30;;;;;;5116044;27;20404;-64
2022/08/05 12:43:33;;;;;;;0.57;0.57;;;22.80;94.30;;;;;;5132529;27;20130;-63
2022/08/05 12:45:59;;;;;;;0.63;0.63;;;22.80;94.60;;;;;;5125499;27;20043;-63
2022/08/05 12:48:25;;;;;;;0.45;0.45;;;22.80;94.40;;;;;;5129283;27;20100;-63
2022/08/05 12:51:11;;;;;;;0.40;0.40;;;22.80;94.40;;;;;;5131861;27;20050;-63
2022/08/05 12:53:44;;;;;;;0.77;0.70;;;22.80;94.40;;;;;;5131711;27;20473;-63
2022/08/05 12:56:23;;;;;;;0.43;0.43;;;22.80;94.40;;;;;;5105087;27;20051;-63
2022/08/05 12:59:24;;;;;;;0.30;0.30;;;22.80;94.40;;;;;;5116018;27;20058;-63
2022/08/05 13:02:03;;;;;;;1.58;0.40;;;22.80;94.40;;;;;;5085557;27;20058;-63